AKDT,Max TemperatureF,Mean TemperatureF,Min TemperatureF,Max Dew PointF,MeanDew PointF,Min DewpointF,Max Humidity, Mean Humidity, Min Humidity, Max Sea Level PressureIn, Mean Sea Level PressureIn, Min Sea Level PressureIn, Max VisibilityMiles, Mean VisibilityMiles, Min VisibilityMiles, Max Wind SpeedMPH, Mean Wind SpeedMPH, Max Gust SpeedMPH,PrecipitationIn, CloudCover, Events, WindDirDegrees
2013-6-1,39,34,30,35,31,28,100,88,81,30.38,30.30,30.16,10,9,0,17,13,,0.00,5,Fog-Snow,236
2013-6-2,48,41,34,38,35,31,92,75,63,30.13,29.94,29.86,10,10,10,23,13,,0.00,1,,198
2013-6-3,41,32,26,34,28,21,96,88,75,29.98,29.92,29.83,10,8,1,23,14,28,0.01,7,Rain-Snow,27
2013-6-4,28,26,24,22,21,19,88,80,74,29.96,29.87,29.81,10,8,1,21,18,24,0.00,8,Snow,55
2013-6-5,28,26,24,26,23,20,93,87,81,29.90,29.86,29.81,10,6,0,20,14,,0.01,8,Fog-Snow,63
2013-6-6,33,29,26,27,26,24,100,86,75,29.96,29.91,29.87,10,8,1,10,7,,0.00,8,Snow,54
2013-6-7,35,30,26,33,30,25,100,94,87,30.03,30.00,29.96,6,2,0,14,10,,0.00,8,Fog-Snow,81
2013-6-8,37,32,28,34,30,27,100,92,86,30.07,30.05,30.03,10,5,0,13,11,,0.00,7,Fog-Rain,80
2013-6-9,48,40,32,40,36,31,100,87,66,30.06,30.01,29.94,10,9,2,14,9,,0.18,7,Rain,274
2013-6-10,46,40,35,38,36,34,100,87,63,30.25,30.16,30.05,10,8,1,18,10,,0.02,6,Rain,254
2013-6-11,57,45,35,46,41,34,96,78,60,30.25,30.22,30.19,10,10,10,10,5,,0.00,5,,155
2013-6-12,61,50,41,46,43,39,93,73,51,30.20,30.17,30.11,10,10,10,13,6,,0.00,1,,100
2013-6-13,61,50,39,48,41,36,89,71,51,30.19,30.13,30.07,10,10,10,13,9,,0.00,2,,58
2013-6-14,77,60,45,51,47,41,90,72,37,30.09,30.06,30.03,10,10,10,14,10,,0.00,4,Rain,65
2013-6-15,61,52,44,55,48,42,97,87,67,30.17,30.14,30.08,10,9,4,10,4,,0.20,8,Rain,112
2013-6-16,54,44,33,53,42,32,100,90,76,30.47,30.26,30.10,10,9,1,29,15,37,0.04,8,Fog-Rain,298
2013-6-17,48,40,32,38,34,30,100,88,66,30.48,30.44,30.35,10,4,0,14,7,,0.00,4,Fog,85
2013-6-18,51,42,35,39,36,32,89,76,66,30.35,30.23,30.09,10,10,10,20,13,24,0.00,2,,70
2013-6-19,52,44,37,40,36,33,86,71,59,30.10,30.01,29.91,10,10,10,22,17,28,0.00,1,,71
2013-6-20,71,52,37,55,43,33,83,69,60,29.90,29.79,29.73,10,10,7,18,13,,0.00,1,,73
2013-6-21,66,59,53,56,49,42,87,70,45,29.87,29.84,29.78,10,10,10,26,13,36,0.03,6,Rain,307
2013-6-22,52,44,37,46,39,35,93,86,76,29.82,29.78,29.76,10,10,10,10,5,,0.05,7,Rain,38
2013-6-23,60,48,37,50,42,36,100,89,67,29.84,29.79,29.77,10,7,0,15,6,,0.00,4,Fog,71
2013-6-24,39,38,35,39,36,33,100,92,86,30.08,29.97,29.84,10,6,0,17,10,,0.00,8,Fog,6
2013-6-25,37,35,33,34,33,32,100,93,86,30.09,30.00,29.91,10,4,2,26,21,32,0.00,8,,73
2013-6-26,61,46,32,47,38,32,100,83,59,29.91,29.83,29.78,10,6,0,14,9,,0.00,4,Fog,79
2013-6-27,66,56,48,61,48,43,93,82,62,29.85,29.79,29.75,10,10,10,14,7,,0.09,6,Rain,97
2013-6-28,66,54,45,52,47,42,93,77,56,29.98,29.94,29.88,10,10,7,16,10,25,0.05,6,Rain,313
2013-6-29,55,50,44,52,45,40,100,80,59,30.06,30.01,29.97,10,9,2,17,11,,0.00,6,,32
2013-6-30,48,44,39,43,39,37,100,89,83,29.99,29.82,29.62,10,9,1,24,16,29,0.00,6,,80